sensor_id;sensor_type;location;lat;lon;timestamp;pressure;altitude;pressure_sealevel;temperature;humidity
18504;BME280;9381;54.244;10.074;2022-07-03T00:04:54;101317.78;;;19.03;89.37
18504;BME280;9381;54.244;10.074;2022-07-03T00:09:54;101316.09;;;19.02;89.46
18504;BME280;9381;54.244;10.074;2022-07-03T00:14:55;101303.03;;;19.09;89.51
18504;BME280;9381;54.244;10.074;2022-07-03T00:19:55;101303.03;;;19.09;89.85
18504;BME280;9381;54.244;10.074;2022-07-03T00:25:06;101295.34;;;19.06;90.51
18504;BME280;9381;54.244;10.074;2022-07-03T00:30:07;101281.63;;;19.06;91.31
18504;BME280;9381;54.244;10.074;2022-07-03T00:35:08;101277.22;;;19.05;91.53
18504;BME280;9381;54.244;10.074;2022-07-03T00:40:09;101271.13;;;18.98;92.45
18504;BME280;9381;54.244;10.074;2022-07-03T00:45:11;101261.78;;;18.99;93.17
18504;BME280;9381;54.244;10.074;2022-07-03T00:50:14;101262.44;;;19.06;93.27
18504;BME280;9381;54.244;10.074;2022-07-03T00:55:16;101244.31;;;19.05;93.60
18504;BME280;9381;54.244;10.074;2022-07-03T01:00:17;101239.56;;;18.96;94.16
18504;BME280;9381;54.244;10.074;2022-07-03T01:05:39;101245.31;;;18.94;94.46
18504;BME280;9381;54.244;10.074;2022-07-03T01:16:18;101233.81;;;18.97;92.93
18504;BME280;9381;54.244;10.074;2022-07-03T01:21:41;101218.97;;;18.93;92.23
18504;BME280;9381;54.244;10.074;2022-07-03T01:26:45;101216.06;;;19.05;89.51
18504;BME280;9381;54.244;10.074;2022-07-03T01:31:48;101213.38;;;19.10;88.91
18504;BME280;9381;54.244;10.074;2022-07-03T01:36:50;101214.94;;;19.01;88.43
18504;BME280;9381;54.244;10.074;2022-07-03T01:41:55;101203.81;;;19.12;86.36
18504;BME280;9381;54.244;10.074;2022-07-03T01:46:59;101197.75;;;19.10;85.70
18504;BME280;9381;54.244;10.074;2022-07-03T01:52:02;101192.78;;;19.07;85.09
18504;BME280;9381;54.244;10.074;2022-07-03T01:57:05;101178.03;;;19.13;84.14
18504;BME280;9381;54.244;10.074;2022-07-03T02:02:30;101180.16;;;19.06;83.90
18504;BME280;9381;54.244;10.074;2022-07-03T02:07:39;101177.97;;;19.03;83.56
18504;BME280;9381;54.244;10.074;2022-07-03T02:12:49;101164.25;;;19.03;83.18
18504;BME280;9381;54.244;10.074;2022-07-03T02:17:51;101166.47;;;19.06;82.00
18504;BME280;9381;54.244;10.074;2022-07-03T02:22:57;101170.28;;;19.05;81.30
18504;BME280;9381;54.244;10.074;2022-07-03T02:33:19;101161.47;;;18.98;81.40
18504;BME280;9381;54.244;10.074;2022-07-03T02:38:23;101165.31;;;19.02;80.73
18504;BME280;9381;54.244;10.074;2022-07-03T02:48:47;101155.41;;;18.96;81.05
18504;BME280;9381;54.244;10.074;2022-07-03T02:53:57;101158.25;;;19.06;79.85
18504;BME280;9381;54.244;10.074;2022-07-03T03:04:33;101142.22;;;18.93;79.92
18504;BME280;9381;54.244;10.074;2022-07-03T03:09:43;101137.88;;;18.97;78.71
18504;BME280;9381;54.244;10.074;2022-07-03T03:14:48;101133.97;;;18.93;78.71
18504;BME280;9381;54.244;10.074;2022-07-03T03:19:58;101129.91;;;18.96;77.90
18504;BME280;9381;54.244;10.074;2022-07-03T03:25:02;101134.03;;;18.98;78.36
18504;BME280;9381;54.244;10.074;2022-07-03T03:30:03;101137.56;;;18.94;77.85
18504;BME280;9381;54.244;10.074;2022-07-03T03:35:07;101124.72;;;18.99;78.10
18504;BME280;9381;54.244;10.074;2022-07-03T03:40:08;101128.56;;;18.98;78.38
18504;BME280;9381;54.244;10.074;2022-07-03T03:45:09;101127.47;;;18.99;77.80
18504;BME280;9381;54.244;10.074;2022-07-03T03:50:09;101128.03;;;19.01;77.17
18504;BME280;9381;54.244;10.074;2022-07-03T03:55:10;101133.25;;;19.03;77.08
18504;BME280;9381;54.244;10.074;2022-07-03T04:00:10;101127.53;;;19.04;76.92
18504;BME280;9381;54.244;10.074;2022-07-03T04:05:11;101129.66;;;19.02;76.44
18504;BME280;9381;54.244;10.074;2022-07-03T04:10:12;101120.91;;;19.00;77.13
18504;BME280;9381;54.244;10.074;2022-07-03T04:15:12;101125.66;;;19.15;75.51
18504;BME280;9381;54.244;10.074;2022-07-03T04:20:12;101117.22;;;19.21;75.78
18504;BME280;9381;54.244;10.074;2022-07-03T04:25:13;101122.75;;;19.26;76.04
18504;BME280;9381;54.244;10.074;2022-07-03T04:30:13;101127.75;;;19.34;75.31
18504;BME280;9381;54.244;10.074;2022-07-03T04:35:13;101140.44;;;19.40;76.66
18504;BME280;9381;54.244;10.074;2022-07-03T04:40:14;101118.19;;;19.42;77.65
18504;BME280;9381;54.244;10.074;2022-07-03T04:45:14;101131.91;;;19.42;77.73
18504;BME280;9381;54.244;10.074;2022-07-03T04:50:15;101124.72;;;19.31;79.20
18504;BME280;9381;54.244;10.074;2022-07-03T04:55:15;101135.38;;;19.22;78.90
18504;BME280;9381;54.244;10.074;2022-07-03T05:00:15;101129.88;;;19.22;80.65
18504;BME280;9381;54.244;10.074;2022-07-03T05:05:16;101135.94;;;19.24;79.79
18504;BME280;9381;54.244;10.074;2022-07-03T05:10:16;101127.91;;;19.18;80.34
18504;BME280;9381;54.244;10.074;2022-07-03T05:15:17;101133.06;;;19.14;80.16
18504;BME280;9381;54.244;10.074;2022-07-03T05:20:17;101131.44;;;19.13;80.83
18504;BME280;9381;54.244;10.074;2022-07-03T05:25:31;101137.72;;;19.14;79.80
18504;BME280;9381;54.244;10.074;2022-07-03T05:30:31;101131.56;;;19.28;77.24
18504;BME280;9381;54.244;10.074;2022-07-03T05:35:32;101129.47;;;19.45;77.47
18504;BME280;9381;54.244;10.074;2022-07-03T05:40:32;101134.53;;;19.63;75.64
18504;BME280;9381;54.244;10.074;2022-07-03T05:45:33;101136.84;;;19.86;74.67
18504;BME280;9381;54.244;10.074;2022-07-03T05:50:33;101124.38;;;20.15;74.77
18504;BME280;9381;54.244;10.074;2022-07-03T05:55:34;101121.16;;;20.43;71.80
18504;BME280;9381;54.244;10.074;2022-07-03T06:00:34;101133.25;;;20.57;70.67
18504;BME280;9381;54.244;10.074;2022-07-03T06:05:35;101128.88;;;20.61;71.36
18504;BME280;9381;54.244;10.074;2022-07-03T06:10:35;101128.88;;;20.71;71.89
18504;BME280;9381;54.244;10.074;2022-07-03T06:15:36;101129.97;;;20.65;72.69
18504;BME280;9381;54.244;10.074;2022-07-03T06:20:36;101120.69;;;20.91;72.54
18504;BME280;9381;54.244;10.074;2022-07-03T06:25:36;101131.13;;;20.99;70.69
18504;BME280;9381;54.244;10.074;2022-07-03T06:30:37;101130.03;;;21.05;71.26
18504;BME280;9381;54.244;10.074;2022-07-03T06:35:37;101134.41;;;21.21;73.45
18504;BME280;9381;54.244;10.074;2022-07-03T06:40:38;101122.31;;;21.32;73.58
18504;BME280;9381;54.244;10.074;2022-07-03T06:45:38;101125.03;;;21.42;70.92
18504;BME280;9381;54.244;10.074;2022-07-03T06:50:38;101115.09;;;21.61;70.89
18504;BME280;9381;54.244;10.074;2022-07-03T06:55:39;101122.25;;;21.62;70.42
18504;BME280;9381;54.244;10.074;2022-07-03T07:00:39;101125.78;;;21.82;70.19
18504;BME280;9381;54.244;10.074;2022-07-03T07:05:39;101135.13;;;21.86;68.16
18504;BME280;9381;54.244;10.074;2022-07-03T07:10:40;101130.91;;;22.04;67.97
18504;BME280;9381;54.244;10.074;2022-07-03T07:15:40;101138.84;;;22.20;67.52
18504;BME280;9381;54.244;10.074;2022-07-03T07:20:41;101137.38;;;22.38;68.60
18504;BME280;9381;54.244;10.074;2022-07-03T07:25:41;101132.31;;;22.60;66.62
18504;BME280;9381;54.244;10.074;2022-07-03T07:30:41;101136.75;;;22.56;67.40
18504;BME280;9381;54.244;10.074;2022-07-03T07:35:42;101134.94;;;22.75;67.93
18504;BME280;9381;54.244;10.074;2022-07-03T07:40:42;101144.56;;;22.82;65.24
18504;BME280;9381;54.244;10.074;2022-07-03T07:45:42;101136.31;;;23.16;66.13
18504;BME280;9381;54.244;10.074;2022-07-03T07:50:43;101137.06;;;23.50;65.66
18504;BME280;9381;54.244;10.074;2022-07-03T07:55:43;101137.41;;;23.72;65.07
18504;BME280;9381;54.244;10.074;2022-07-03T08:00:44;101134.38;;;23.97;64.93
18504;BME280;9381;54.244;10.074;2022-07-03T08:06:03;101138.06;;;24.11;62.04
18504;BME280;9381;54.244;10.074;2022-07-03T08:11:03;101131.78;;;24.47;62.76
18504;BME280;9381;54.244;10.074;2022-07-03T08:16:04;101143.38;;;24.86;63.63
18504;BME280;9381;54.244;10.074;2022-07-03T08:21:04;101142.13;;;25.10;61.14
18504;BME280;9381;54.244;10.074;2022-07-03T08:26:05;101143.16;;;25.14;60.12
18504;BME280;9381;54.244;10.074;2022-07-03T08:31:05;101142.91;;;24.97;59.89
18504;BME280;9381;54.244;10.074;2022-07-03T08:36:06;101152.41;;;24.73;61.84
18504;BME280;9381;54.244;10.074;2022-07-03T08:41:06;101146.34;;;24.52;62.48
18504;BME280;9381;54.244;10.074;2022-07-03T08:46:10;101133.94;;;24.68;64.15
18504;BME280;9381;54.244;10.074;2022-07-03T08:51:11;101145.72;;;25.11;62.28
18504;BME280;9381;54.244;10.074;2022-07-03T08:56:11;101146.00;;;25.28;59.34
18504;BME280;9381;54.244;10.074;2022-07-03T09:01:15;101144.47;;;25.22;58.58
18504;BME280;9381;54.244;10.074;2022-07-03T09:06:17;101148.63;;;25.01;59.70
18504;BME280;9381;54.244;10.074;2022-07-03T09:11:18;101149.38;;;25.25;59.52
18504;BME280;9381;54.244;10.074;2022-07-03T09:16:18;101144.75;;;25.52;58.75
18504;BME280;9381;54.244;10.074;2022-07-03T09:21:19;101143.25;;;25.41;58.29
18504;BME280;9381;54.244;10.074;2022-07-03T09:26:20;101144.34;;;25.72;60.53
18504;BME280;9381;54.244;10.074;2022-07-03T09:31:27;101151.41;;;26.59;58.29
18504;BME280;9381;54.244;10.074;2022-07-03T09:36:48;101149.56;;;27.56;55.37
18504;BME280;9381;54.244;10.074;2022-07-03T09:42:03;101149.69;;;27.51;52.04
18504;BME280;9381;54.244;10.074;2022-07-03T09:47:23;101158.81;;;26.99;53.33
18504;BME280;9381;54.244;10.074;2022-07-03T09:57:34;101145.16;;;26.89;55.96
18504;BME280;9381;54.244;10.074;2022-07-03T10:02:35;101149.59;;;26.90;55.06
18504;BME280;9381;54.244;10.074;2022-07-03T10:07:49;101163.41;;;26.68;55.74
18504;BME280;9381;54.244;10.074;2022-07-03T10:12:51;101159.72;;;26.59;56.78
18504;BME280;9381;54.244;10.074;2022-07-03T10:17:53;101152.78;;;27.19;57.78
18504;BME280;9381;54.244;10.074;2022-07-03T10:22:55;101152.06;;;28.61;52.85
18504;BME280;9381;54.244;10.074;2022-07-03T10:27:56;101136.53;;;29.28;52.33
18504;BME280;9381;54.244;10.074;2022-07-03T10:32:57;101144.22;;;30.31;49.96
18504;BME280;9381;54.244;10.074;2022-07-03T10:43:06;101139.09;;;31.80;40.05
18504;BME280;9381;54.244;10.074;2022-07-03T10:59:16;101137.59;;;31.38;42.83
18504;BME280;9381;54.244;10.074;2022-07-03T11:04:17;101137.03;;;30.71;41.76
18504;BME280;9381;54.244;10.074;2022-07-03T11:09:17;101130.50;;;30.88;43.52
18504;BME280;9381;54.244;10.074;2022-07-03T11:14:19;101135.28;;;30.38;42.37
18504;BME280;9381;54.244;10.074;2022-07-03T11:19:25;101144.53;;;29.92;42.48
18504;BME280;9381;54.244;10.074;2022-07-03T11:29:36;101145.75;;;29.83;43.11
18504;BME280;9381;54.244;10.074;2022-07-03T11:34:45;101143.56;;;30.26;44.48
18504;BME280;9381;54.244;10.074;2022-07-03T11:39:48;101150.97;;;30.22;43.32
18504;BME280;9381;54.244;10.074;2022-07-03T11:44:54;101142.28;;;30.23;45.07
18504;BME280;9381;54.244;10.074;2022-07-03T11:49:54;101139.41;;;30.03;42.18
18504;BME280;9381;54.244;10.074;2022-07-03T11:54:54;101131.66;;;30.66;44.21
18504;BME280;9381;54.244;10.074;2022-07-03T12:00:04;101128.63;;;32.01;41.52
18504;BME280;9381;54.244;10.074;2022-07-03T12:05:14;101129.09;;;32.51;37.45
18504;BME280;9381;54.244;10.074;2022-07-03T12:10:15;101122.00;;;33.08;40.98
18504;BME280;9381;54.244;10.074;2022-07-03T12:15:16;101127.28;;;33.37;38.11
18504;BME280;9381;54.244;10.074;2022-07-03T12:20:17;101127.88;;;34.20;37.44
18504;BME280;9381;54.244;10.074;2022-07-03T12:25:17;101122.59;;;33.72;37.74
18504;BME280;9381;54.244;10.074;2022-07-03T12:30:20;101124.56;;;33.13;38.44
18504;BME280;9381;54.244;10.074;2022-07-03T12:35:24;101129.19;;;32.42;39.09
18504;BME280;9381;54.244;10.074;2022-07-03T12:40:24;101135.16;;;31.37;41.24
18504;BME280;9381;54.244;10.074;2022-07-03T12:45:26;101123.44;;;31.23;42.99
18504;BME280;9381;54.244;10.074;2022-07-03T12:50:49;101126.19;;;30.90;43.19
18504;BME280;9381;54.244;10.074;2022-07-03T12:56:03;101117.97;;;30.24;43.52
18504;BME280;9381;54.244;10.074;2022-07-03T13:01:04;101119.47;;;29.84;44.58
18504;BME280;9381;54.244;10.074;2022-07-03T13:06:14;101122.16;;;29.72;44.13
18504;BME280;9381;54.244;10.074;2022-07-03T13:11:31;101119.84;;;29.02;43.99
18504;BME280;9381;54.244;10.074;2022-07-03T13:16:40;101113.59;;;28.46;49.74
18504;BME280;9381;54.244;10.074;2022-07-03T13:21:41;101116.66;;;28.27;50.46
18504;BME280;9381;54.244;10.074;2022-07-03T13:26:44;101114.41;;;28.38;47.14
18504;BME280;9381;54.244;10.074;2022-07-03T13:31:44;101106.41;;;28.96;47.43
18504;BME280;9381;54.244;10.074;2022-07-03T13:36:45;101092.50;;;28.62;46.87
18504;BME280;9381;54.244;10.074;2022-07-03T13:41:45;101092.44;;;28.28;47.46
18504;BME280;9381;54.244;10.074;2022-07-03T13:46:46;101083.75;;;28.12;48.75
18504;BME280;9381;54.244;10.074;2022-07-03T13:51:46;101079.66;;;28.10;45.98
18504;BME280;9381;54.244;10.074;2022-07-03T13:56:47;101072.50;;;28.85;44.74
18504;BME280;9381;54.244;10.074;2022-07-03T14:01:47;101070.41;;;29.54;41.55
18504;BME280;9381;54.244;10.074;2022-07-03T14:06:47;101071.47;;;29.24;41.53
18504;BME280;9381;54.244;10.074;2022-07-03T14:11:48;101072.34;;;28.82;43.57
18504;BME280;9381;54.244;10.074;2022-07-03T14:16:50;101060.69;;;28.97;43.10
18504;BME280;9381;54.244;10.074;2022-07-03T14:21:50;101058.69;;;29.23;44.84
18504;BME280;9381;54.244;10.074;2022-07-03T14:26:50;101067.19;;;29.35;41.35
18504;BME280;9381;54.244;10.074;2022-07-03T14:32:09;101063.28;;;29.19;43.21
18504;BME280;9381;54.244;10.074;2022-07-03T14:37:29;101066.28;;;28.97;41.21
18504;BME280;9381;54.244;10.074;2022-07-03T14:42:29;101052.22;;;28.51;42.91
18504;BME280;9381;54.244;10.074;2022-07-03T14:47:30;101049.53;;;28.20;44.03
18504;BME280;9381;54.244;10.074;2022-07-03T14:52:31;101043.09;;;27.86;45.50
18504;BME280;9381;54.244;10.074;2022-07-03T14:57:46;101040.72;;;27.63;47.46
18504;BME280;9381;54.244;10.074;2022-07-03T15:03:03;101041.03;;;27.22;49.62
18504;BME280;9381;54.244;10.074;2022-07-03T15:13:15;101038.13;;;26.39;54.19
18504;BME280;9381;54.244;10.074;2022-07-03T15:18:18;101031.88;;;25.98;55.29
18504;BME280;9381;54.244;10.074;2022-07-03T15:23:20;101039.50;;;25.52;56.24
18504;BME280;9381;54.244;10.074;2022-07-03T15:28:21;101033.75;;;25.17;59.38
18504;BME280;9381;54.244;10.074;2022-07-03T15:33:23;101033.59;;;24.81;64.89
18504;BME280;9381;54.244;10.074;2022-07-03T15:38:38;101039.03;;;24.18;71.51
18504;BME280;9381;54.244;10.074;2022-07-03T15:59:58;101120.47;;;22.06;88.82
18504;BME280;9381;54.244;10.074;2022-07-03T16:05:02;101140.72;;;21.41;90.23
18504;BME280;9381;54.244;10.074;2022-07-03T16:10:05;101137.09;;;21.61;91.12
18504;BME280;9381;54.244;10.074;2022-07-03T16:15:08;101138.47;;;21.78;92.67
18504;BME280;9381;54.244;10.074;2022-07-03T16:20:09;101154.16;;;21.78;91.32
18504;BME280;9381;54.244;10.074;2022-07-03T16:25:09;101162.44;;;21.78;92.58
18504;BME280;9381;54.244;10.074;2022-07-03T16:30:10;101128.53;;;21.77;92.26
18504;BME280;9381;54.244;10.074;2022-07-03T16:35:16;101101.31;;;21.71;90.07
18504;BME280;9381;54.244;10.074;2022-07-03T16:40:21;101077.06;;;21.73;88.59
18504;BME280;9381;54.244;10.074;2022-07-03T16:45:23;101088.09;;;21.63;90.52
18504;BME280;9381;54.244;10.074;2022-07-03T16:50:27;101095.25;;;21.74;91.59
18504;BME280;9381;54.244;10.074;2022-07-03T16:55:28;101091.41;;;21.65;92.05
18504;BME280;9381;54.244;10.074;2022-07-03T17:00:29;101084.28;;;21.54;92.08
18504;BME280;9381;54.244;10.074;2022-07-03T17:05:30;101113.72;;;21.58;92.50
18504;BME280;9381;54.244;10.074;2022-07-03T17:10:30;101115.09;;;21.56;92.87
18504;BME280;9381;54.244;10.074;2022-07-03T17:15:31;101140.41;;;21.58;93.18
18504;BME280;9381;54.244;10.074;2022-07-03T17:20:34;101128.59;;;21.57;92.55
18504;BME280;9381;54.244;10.074;2022-07-03T17:25:56;101113.44;;;21.65;91.90
18504;BME280;9381;54.244;10.074;2022-07-03T17:31:04;101156.16;;;21.37;91.02
18504;BME280;9381;54.244;10.074;2022-07-03T17:36:07;101139.66;;;21.27;93.64
18504;BME280;9381;54.244;10.074;2022-07-03T17:41:08;101131.66;;;21.26;95.39
18504;BME280;9381;54.244;10.074;2022-07-03T17:46:10;101134.44;;;21.16;96.22
18504;BME280;9381;54.244;10.074;2022-07-03T17:51:15;101146.53;;;21.10;95.28
18504;BME280;9381;54.244;10.074;2022-07-03T17:56:17;101133.59;;;21.11;97.29
18504;BME280;9381;54.244;10.074;2022-07-03T18:01:19;101111.31;;;21.12;98.69
18504;BME280;9381;54.244;10.074;2022-07-03T18:06:21;101108.31;;;21.04;99.64
18504;BME280;9381;54.244;10.074;2022-07-03T18:16:56;101105.84;;;20.87;100.00
18504;BME280;9381;54.244;10.074;2022-07-03T18:22:01;101124.53;;;21.00;100.00
18504;BME280;9381;54.244;10.074;2022-07-03T18:27:13;101132.22;;;20.93;100.00
18504;BME280;9381;54.244;10.074;2022-07-03T18:32:16;101140.44;;;20.78;100.00
18504;BME280;9381;54.244;10.074;2022-07-03T18:37:20;101148.66;;;20.73;100.00
18504;BME280;9381;54.244;10.074;2022-07-03T18:42:22;101145.38;;;20.71;98.10
18504;BME280;9381;54.244;10.074;2022-07-03T18:47:23;101164.06;;;20.59;98.16
18504;BME280;9381;54.244;10.074;2022-07-03T18:52:33;101168.63;;;20.29;98.41
18504;BME280;9381;54.244;10.074;2022-07-03T18:57:50;101184.78;;;20.15;98.92
18504;BME280;9381;54.244;10.074;2022-07-03T19:08:09;101287.22;;;18.68;100.00
18504;BME280;9381;54.244;10.074;2022-07-03T19:13:19;101192.94;;;18.96;100.00
18504;BME280;9381;54.244;10.074;2022-07-03T19:18:21;101165.59;;;19.01;100.00
18504;BME280;9381;54.244;10.074;2022-07-03T19:23:22;101167.47;;;18.95;99.64
18504;BME280;9381;54.244;10.074;2022-07-03T19:28:22;101155.09;;;18.93;100.00
18504;BME280;9381;54.244;10.074;2022-07-03T19:33:24;101175.59;;;18.85;100.00
18504;BME280;9381;54.244;10.074;2022-07-03T19:38:24;101188.69;;;18.78;99.92
18504;BME280;9381;54.244;10.074;2022-07-03T19:43:25;101192.50;;;18.77;100.00
18504;BME280;9381;54.244;10.074;2022-07-03T19:48:25;101177.00;;;18.61;100.00
18504;BME280;9381;54.244;10.074;2022-07-03T19:53:26;101173.59;;;18.49;100.00
18504;BME280;9381;54.244;10.074;2022-07-03T19:58:26;101187.63;;;18.31;100.00
18504;BME280;9381;54.244;10.074;2022-07-03T20:03:27;101185.88;;;18.04;99.93
18504;BME280;9381;54.244;10.074;2022-07-03T20:08:28;101193.06;;;17.88;99.92
18504;BME280;9381;54.244;10.074;2022-07-03T20:13:28;101190.75;;;17.81;100.00
18504;BME280;9381;54.244;10.074;2022-07-03T20:18:29;101190.47;;;17.61;100.00
18504;BME280;9381;54.244;10.074;2022-07-03T20:23:29;101185.09;;;17.33;100.00
18504;BME280;9381;54.244;10.074;2022-07-03T20:28:30;101178.38;;;17.24;100.00
18504;BME280;9381;54.244;10.074;2022-07-03T20:33:30;101175.31;;;17.04;100.00
18504;BME280;9381;54.244;10.074;2022-07-03T20:38:30;101180.50;;;17.05;100.00
18504;BME280;9381;54.244;10.074;2022-07-03T20:43:31;101179.88;;;17.15;100.00
18504;BME280;9381;54.244;10.074;2022-07-03T20:48:31;101188.13;;;17.20;100.00
18504;BME280;9381;54.244;10.074;2022-07-03T20:53:31;101199.22;;;17.30;100.00
18504;BME280;9381;54.244;10.074;2022-07-03T20:58:32;101199.22;;;17.30;100.00
18504;BME280;9381;54.244;10.074;2022-07-03T21:03:33;101202.13;;;17.23;100.00
18504;BME280;9381;54.244;10.074;2022-07-03T21:08:33;101199.22;;;17.13;100.00
18504;BME280;9381;54.244;10.074;2022-07-03T21:13:34;101197.75;;;17.06;100.00
18504;BME280;9381;54.244;10.074;2022-07-03T21:18:34;101198.56;;;16.90;100.00
18504;BME280;9381;54.244;10.074;2022-07-03T21:23:34;101214.00;;;16.68;100.00
18504;BME280;9381;54.244;10.074;2022-07-03T21:28:35;101214.81;;;16.68;100.00
18504;BME280;9381;54.244;10.074;2022-07-03T21:33:35;101212.56;;;16.37;100.00
18504;BME280;9381;54.244;10.074;2022-07-03T21:38:36;101203.31;;;16.38;100.00
18504;BME280;9381;54.244;10.074;2022-07-03T21:43:36;101209.25;;;16.35;100.00
18504;BME280;9381;54.244;10.074;2022-07-03T21:48:37;101203.88;;;16.29;100.00
18504;BME280;9381;54.244;10.074;2022-07-03T21:53:38;101209.53;;;16.11;100.00
18504;BME280;9381;54.244;10.074;2022-07-03T21:58:38;101217.81;;;16.16;100.00
18504;BME280;9381;54.244;10.074;2022-07-03T22:03:38;101234.72;;;15.90;100.00
18504;BME280;9381;54.244;10.074;2022-07-03T22:08:39;101240.44;;;15.77;100.00
18504;BME280;9381;54.244;10.074;2022-07-03T22:13:39;101220.50;;;15.88;100.00
18504;BME280;9381;54.244;10.074;2022-07-03T22:18:39;101235.34;;;15.80;100.00
18504;BME280;9381;54.244;10.074;2022-07-03T22:23:40;101225.63;;;15.61;100.00
18504;BME280;9381;54.244;10.074;2022-07-03T22:28:40;101231.16;;;15.55;100.00
18504;BME280;9381;54.244;10.074;2022-07-03T22:33:40;101228.00;;;15.58;100.00
18504;BME280;9381;54.244;10.074;2022-07-03T22:38:40;101222.63;;;15.63;100.00
18504;BME280;9381;54.244;10.074;2022-07-03T22:43:41;101216.94;;;15.53;100.00
18504;BME280;9381;54.244;10.074;2022-07-03T22:48:41;101210.78;;;15.46;100.00
18504;BME280;9381;54.244;10.074;2022-07-03T22:53:42;101204.75;;;15.44;100.00
18504;BME280;9381;54.244;10.074;2022-07-03T22:58:42;101206.75;;;15.37;100.00
18504;BME280;9381;54.244;10.074;2022-07-03T23:03:42;101203.16;;;15.25;100.00
18504;BME280;9381;54.244;10.074;2022-07-03T23:08:43;101208.59;;;15.25;100.00
18504;BME280;9381;54.244;10.074;2022-07-03T23:13:43;101216.31;;;15.16;100.00
18504;BME280;9381;54.244;10.074;2022-07-03T23:18:44;101202.91;;;15.15;100.00
18504;BME280;9381;54.244;10.074;2022-07-03T23:23:44;101203.38;;;15.12;100.00
18504;BME280;9381;54.244;10.074;2022-07-03T23:28:44;101203.97;;;15.14;100.00
18504;BME280;9381;54.244;10.074;2022-07-03T23:33:45;101203.75;;;15.27;100.00
18504;BME280;9381;54.244;10.074;2022-07-03T23:38:45;101208.03;;;15.23;100.00
18504;BME280;9381;54.244;10.074;2022-07-03T23:43:46;101208.69;;;15.07;100.00
18504;BME280;9381;54.244;10.074;2022-07-03T23:48:47;101209.31;;;15.20;100.00
18504;BME280;9381;54.244;10.074;2022-07-03T23:54:06;101213.31;;;15.18;100.00
18504;BME280;9381;54.244;10.074;2022-07-03T23:59:06;101224.22;;;15.18;100.00
